createdAt,value
2019-03-28T00:01:15.045Z,16.50
2019-03-28T00:03:43.967Z,16.30
2019-03-28T00:06:12.733Z,16.37
2019-03-28T00:08:41.631Z,15.80
2019-03-28T00:11:10.499Z,18.82
2019-03-28T00:13:39.258Z,14.07
2019-03-28T00:16:08.032Z,13.50
2019-03-28T00:18:36.854Z,19.12
2019-03-28T00:21:05.676Z,19.20
2019-03-28T00:23:36.081Z,14.63
2019-03-28T00:26:04.908Z,23.38
2019-03-28T00:28:33.758Z,17.32
2019-03-28T00:31:02.561Z,17.50
2019-03-28T00:33:31.358Z,20.88
2019-03-28T00:36:00.108Z,14.65
2019-03-28T00:38:28.886Z,17.57
2019-03-28T00:40:57.708Z,15.32
2019-03-28T00:43:26.589Z,15.65
2019-03-28T00:45:56.176Z,19.82
2019-03-28T00:48:25.108Z,12.28
2019-03-28T00:50:53.915Z,14.87
2019-03-28T00:53:22.743Z,12.68
2019-03-28T00:55:51.580Z,14.10
2019-03-28T00:58:20.427Z,13.72
2019-03-28T01:00:49.263Z,15.20
2019-03-28T01:03:18.165Z,23.98
2019-03-28T01:05:46.983Z,21.10
2019-03-28T01:08:15.757Z,14.33
2019-03-28T01:10:44.658Z,16.60
2019-03-28T01:13:13.563Z,14.87
2019-03-28T01:15:42.308Z,27.48
2019-03-28T01:18:11.134Z,29.15
2019-03-28T01:20:39.991Z,13.78
2019-03-28T01:23:08.830Z,13.88
2019-03-28T01:25:37.659Z,9.98
2019-03-28T01:28:06.434Z,11.22
2019-03-28T01:30:35.310Z,21.07
2019-03-28T01:33:04.183Z,21.48
2019-03-28T01:35:33.033Z,14.20
2019-03-28T01:38:02.317Z,14.30
2019-03-28T01:40:31.153Z,18.02
2019-03-28T01:42:59.957Z,16.37
2019-03-28T01:45:28.719Z,14.18
2019-03-28T01:47:57.536Z,16.02
2019-03-28T01:50:26.326Z,17.15
2019-03-28T01:52:55.181Z,12.50
2019-03-28T01:55:24.095Z,15.23
2019-03-28T01:57:52.923Z,16.10
2019-03-28T02:00:21.735Z,18.20
2019-03-28T02:02:50.630Z,16.20
2019-03-28T02:05:19.479Z,20.10
2019-03-28T02:07:48.339Z,30.10
2019-03-28T02:10:17.218Z,29.98
2019-03-28T02:12:45.989Z,27.35
2019-03-28T02:15:14.879Z,32.38
2019-03-28T02:17:43.782Z,29.30
2019-03-28T02:20:13.022Z,31.15
2019-03-28T02:22:41.988Z,29.50
2019-03-28T02:25:11.706Z,25.55
2019-03-28T02:27:40.489Z,22.87
2019-03-28T02:30:10.019Z,27.25
2019-03-28T02:32:38.857Z,23.60
2019-03-28T02:35:07.901Z,45.30
2019-03-28T02:37:36.669Z,24.87
2019-03-28T02:40:07.428Z,25.62
2019-03-28T02:42:36.231Z,19.92
2019-03-28T02:45:07.303Z,17.77
2019-03-28T02:47:36.176Z,22.07
2019-03-28T02:50:06.419Z,19.48
2019-03-28T02:52:35.379Z,21.15
2019-03-28T02:55:05.685Z,18.42
2019-03-28T02:57:41.769Z,18.77
2019-03-28T03:00:06.932Z,18.95
2019-03-28T03:02:35.808Z,18.45
2019-03-28T03:05:06.717Z,15.25
2019-03-28T03:07:35.554Z,22.25
2019-03-28T03:10:07.035Z,13.98
2019-03-28T03:12:36.059Z,17.73
2019-03-28T03:15:09.370Z,13.10
2019-03-28T03:17:38.119Z,10.60
2019-03-28T03:20:07.826Z,21.85
2019-03-28T03:22:37.287Z,14.50
2019-03-28T03:25:07.400Z,15.32
2019-03-28T03:27:36.804Z,17.37
2019-03-28T03:30:09.215Z,14.05
2019-03-28T03:32:38.180Z,14.35
2019-03-28T03:35:07.862Z,16.12
2019-03-28T03:37:36.768Z,15.38
2019-03-28T03:40:10.345Z,16.42
2019-03-28T03:42:39.271Z,12.47
2019-03-28T03:45:09.320Z,16.00
2019-03-28T03:47:38.626Z,12.45
2019-03-28T03:50:08.292Z,14.87
2019-03-28T03:52:37.168Z,13.22
2019-03-28T03:55:07.218Z,17.23
2019-03-28T03:57:36.118Z,15.58
2019-03-28T04:00:06.935Z,17.62
2019-03-28T04:02:36.596Z,22.10
2019-03-28T04:05:06.805Z,18.40
2019-03-28T04:07:35.597Z,18.17
2019-03-28T04:10:05.977Z,17.45
2019-03-28T04:12:34.844Z,14.87
2019-03-28T04:15:03.916Z,18.35
2019-03-28T04:17:32.770Z,15.13
2019-03-28T04:20:01.535Z,15.25
2019-03-28T04:22:30.335Z,13.05
2019-03-28T04:24:59.143Z,17.82
2019-03-28T04:27:27.923Z,20.97
2019-03-28T04:29:56.930Z,18.27
2019-03-28T04:32:25.960Z,18.50
2019-03-28T04:34:54.799Z,17.90
2019-03-28T04:37:23.647Z,13.53
2019-03-28T04:39:52.508Z,16.93
2019-03-28T04:42:21.366Z,12.65
2019-03-28T04:44:50.200Z,14.53
2019-03-28T04:47:19.083Z,11.45
2019-03-28T04:49:47.958Z,20.10
2019-03-28T04:52:16.860Z,17.05
2019-03-28T04:54:45.737Z,13.48
2019-03-28T04:57:14.545Z,19.62
2019-03-28T04:59:43.437Z,14.13
2019-03-28T05:02:12.258Z,16.97
2019-03-28T05:04:41.149Z,13.50
2019-03-28T05:07:09.903Z,14.70
2019-03-28T05:09:38.676Z,11.78
2019-03-28T05:12:07.614Z,15.65
2019-03-28T05:14:36.428Z,19.52
2019-03-28T05:17:05.288Z,17.73
2019-03-28T05:19:34.189Z,16.82
2019-03-28T05:22:03.080Z,18.05
2019-03-28T05:24:32.446Z,26.85
2019-03-28T05:27:01.525Z,19.42
2019-03-28T05:29:30.279Z,20.05
2019-03-28T05:31:59.095Z,16.42
2019-03-28T05:34:27.990Z,19.45
2019-03-28T05:36:56.820Z,16.10
2019-03-28T05:39:25.595Z,21.70
2019-03-28T05:41:54.486Z,17.10
2019-03-28T05:44:23.325Z,16.50
2019-03-28T05:46:52.106Z,24.80
2019-03-28T05:49:20.995Z,21.68
2019-03-28T05:51:49.894Z,20.85
2019-03-28T05:54:18.693Z,20.75
2019-03-28T05:56:47.532Z,15.75
2019-03-28T05:59:16.414Z,16.67
2019-03-28T06:01:45.270Z,16.02
2019-03-28T06:04:14.047Z,21.52
2019-03-28T06:06:42.852Z,13.78
2019-03-28T06:09:11.657Z,18.12
2019-03-28T06:11:40.555Z,14.25
2019-03-28T06:14:09.348Z,15.35
2019-03-28T06:16:38.223Z,16.48
2019-03-28T06:19:07.073Z,18.30
2019-03-28T06:21:35.831Z,13.45
2019-03-28T06:24:05.303Z,20.80
2019-03-28T06:26:34.333Z,23.85
2019-03-28T06:29:03.204Z,19.73
2019-03-28T06:31:32.052Z,20.50
2019-03-28T06:34:00.820Z,19.12
2019-03-28T06:36:29.610Z,17.30
2019-03-28T06:38:58.390Z,15.90
2019-03-28T06:41:27.232Z,21.68
2019-03-28T06:43:56.082Z,19.60
2019-03-28T06:46:24.940Z,16.82
2019-03-28T06:48:53.705Z,23.50
2019-03-28T06:51:22.467Z,31.42
2019-03-28T06:53:51.311Z,20.05
2019-03-28T06:56:20.153Z,14.13
2019-03-28T06:58:48.980Z,22.37
2019-03-28T07:01:17.822Z,16.70
2019-03-28T07:03:47.481Z,19.00
2019-03-28T07:06:16.522Z,19.32
2019-03-28T07:08:45.298Z,19.42
2019-03-28T07:11:14.094Z,27.17
2019-03-28T07:13:42.882Z,26.85
2019-03-28T07:16:11.679Z,23.20
2019-03-28T07:18:40.520Z,20.72
2019-03-28T07:21:09.418Z,21.77
2019-03-28T07:23:38.320Z,19.92
2019-03-28T07:26:07.133Z,13.65
2019-03-28T07:28:35.966Z,16.32
2019-03-28T07:31:04.826Z,14.10
2019-03-28T07:33:33.655Z,12.80
2019-03-28T07:36:02.499Z,23.15
2019-03-28T07:38:31.279Z,15.93
2019-03-28T07:41:00.126Z,18.50
2019-03-28T07:43:28.973Z,14.70
2019-03-28T07:45:57.824Z,15.53
2019-03-28T07:48:26.674Z,17.23
2019-03-28T07:50:55.545Z,14.75
2019-03-28T07:53:24.368Z,16.07
2019-03-28T07:55:53.263Z,12.82
2019-03-28T07:58:22.051Z,15.58
2019-03-28T08:00:50.981Z,14.68
2019-03-28T08:03:19.805Z,15.53
2019-03-28T08:05:48.655Z,12.98
2019-03-28T08:08:17.442Z,14.58
2019-03-28T08:10:46.289Z,12.82
2019-03-28T08:13:15.073Z,12.78
2019-03-28T08:15:43.908Z,11.75
2019-03-28T08:18:12.655Z,14.93
2019-03-28T08:20:41.519Z,12.18
2019-03-28T08:23:10.409Z,13.75
2019-03-28T08:25:39.189Z,32.35
2019-03-28T08:28:08.121Z,22.93
2019-03-28T08:30:38.456Z,24.80
2019-03-28T08:33:07.856Z,64.47
2019-03-28T08:35:37.244Z,73.50
2019-03-28T08:38:09.722Z,41.92
2019-03-28T08:40:42.562Z,35.33
2019-03-28T08:43:11.623Z,10.75
2019-03-28T08:45:40.489Z,23.10
2019-03-28T08:48:09.419Z,13.13
2019-03-28T08:50:38.365Z,11.70
2019-03-28T08:53:07.203Z,8.85
2019-03-28T08:55:36.244Z,9.05
2019-03-28T08:58:05.208Z,12.35
2019-03-28T09:00:50.366Z,11.15
2019-03-28T09:03:04.673Z,10.53
2019-03-28T09:05:33.552Z,12.40
2019-03-28T09:08:02.426Z,10.25
2019-03-28T09:10:31.255Z,10.20
2019-03-28T09:13:00.132Z,12.40
2019-03-28T09:15:42.677Z,11.28
2019-03-28T09:18:00.354Z,10.05
2019-03-28T09:20:29.322Z,8.95
2019-03-28T09:22:58.152Z,10.60
2019-03-28T09:25:27.044Z,13.90
2019-03-28T09:27:56.628Z,13.95
2019-03-28T09:30:47.292Z,12.80
2019-03-28T09:33:04.894Z,11.38
2019-03-28T09:35:33.706Z,48.98
2019-03-28T09:38:02.584Z,14.28
2019-03-28T09:40:31.428Z,22.20
2019-03-28T09:43:00.220Z,13.70
2019-03-28T09:45:30.190Z,9.40
2019-03-28T09:47:59.142Z,9.43
2019-03-28T09:50:28.040Z,10.50
2019-03-28T09:52:56.875Z,8.60
2019-03-28T09:55:25.671Z,14.10
2019-03-28T09:57:54.435Z,9.15
2019-03-28T10:00:23.316Z,24.57
2019-03-28T10:02:52.131Z,8.40
2019-03-28T10:05:20.965Z,9.68
2019-03-28T10:07:49.876Z,19.05
2019-03-28T10:10:18.641Z,10.70
2019-03-28T10:12:47.467Z,11.28
2019-03-28T10:15:16.523Z,7.35
2019-03-28T10:17:45.408Z,11.22
2019-03-28T10:20:14.560Z,10.25
2019-03-28T10:22:43.430Z,9.23
2019-03-28T10:25:13.063Z,12.30
2019-03-28T10:27:43.158Z,7.45
2019-03-28T10:30:12.756Z,6.83
2019-03-28T10:32:41.649Z,14.47
2019-03-28T10:35:13.413Z,12.18
2019-03-28T10:37:42.224Z,10.72
2019-03-28T10:40:11.156Z,9.48
2019-03-28T10:42:39.967Z,11.63
2019-03-28T10:45:09.053Z,13.48
2019-03-28T10:47:37.863Z,12.63
2019-03-28T10:50:07.228Z,6.03
2019-03-28T10:52:36.081Z,6.72
2019-03-28T10:55:06.247Z,7.80
2019-03-28T10:57:35.152Z,8.15
2019-03-28T11:00:06.790Z,6.65
2019-03-28T11:02:35.618Z,8.35
2019-03-28T11:05:06.301Z,7.85
2019-03-28T11:07:35.071Z,12.30
2019-03-28T11:10:05.134Z,10.43
2019-03-28T11:12:33.968Z,8.35
2019-03-28T11:15:02.860Z,5.97
2019-03-28T11:17:31.770Z,10.30
2019-03-28T11:20:00.587Z,7.37
2019-03-28T11:22:29.547Z,8.13
2019-03-28T11:24:58.340Z,9.98
2019-03-28T11:27:27.214Z,7.95
2019-03-28T11:29:56.078Z,9.70
2019-03-28T11:32:24.860Z,8.75
2019-03-28T11:34:53.748Z,8.33
2019-03-28T11:37:26.420Z,9.75
2019-03-28T11:39:52.931Z,9.35
2019-03-28T11:42:21.761Z,10.15
2019-03-28T11:44:50.560Z,9.00
2019-03-28T11:47:22.016Z,12.15
2019-03-28T11:49:49.862Z,8.55
2019-03-28T11:52:18.668Z,9.40
2019-03-28T11:54:47.531Z,9.08
2019-03-28T11:57:16.378Z,7.35
2019-03-28T11:59:45.309Z,7.83
2019-03-28T12:02:20.152Z,9.58
2019-03-28T12:04:44.460Z,5.62
2019-03-28T12:07:13.351Z,6.75
2019-03-28T12:09:42.191Z,9.15
2019-03-28T12:12:11.056Z,10.25
2019-03-28T12:14:42.676Z,5.20
2019-03-28T12:17:11.508Z,4.92
2019-03-28T12:19:40.410Z,9.03
2019-03-28T12:22:09.211Z,10.72
2019-03-28T12:24:37.973Z,9.00
2019-03-28T12:27:06.780Z,5.80
2019-03-28T12:29:36.017Z,5.58
2019-03-28T12:32:13.865Z,5.95
2019-03-28T12:34:35.557Z,5.90
2019-03-28T12:37:04.349Z,3.58
2019-03-28T12:39:33.138Z,9.53
2019-03-28T12:42:01.992Z,5.05
2019-03-28T12:44:30.875Z,8.65
2019-03-28T12:46:59.742Z,6.78
2019-03-28T12:49:28.624Z,9.73
2019-03-28T12:51:57.446Z,3.08
2019-03-28T12:54:26.281Z,6.33
2019-03-28T12:56:58.032Z,5.20
2019-03-28T12:59:25.685Z,10.72
2019-03-28T13:01:55.277Z,5.83
2019-03-28T13:04:24.187Z,9.75
2019-03-28T13:06:52.974Z,3.70
2019-03-28T13:09:21.838Z,7.95
2019-03-28T13:11:50.673Z,5.10
2019-03-28T13:14:19.531Z,3.52
2019-03-28T13:16:48.364Z,4.87
2019-03-28T13:19:17.274Z,17.20
2019-03-28T13:21:46.073Z,5.40
2019-03-28T13:24:14.921Z,5.08
2019-03-28T13:26:43.823Z,10.43
2019-03-28T13:29:12.620Z,8.75
2019-03-28T13:31:41.644Z,4.90
2019-03-28T13:34:10.468Z,2.90
2019-03-28T13:36:39.320Z,8.20
2019-03-28T13:39:08.409Z,10.95
2019-03-28T13:41:37.295Z,6.72
2019-03-28T13:44:06.096Z,6.12
2019-03-28T13:46:34.896Z,13.48
2019-03-28T13:49:03.752Z,7.80
2019-03-28T13:51:32.642Z,6.85
2019-03-28T13:54:01.522Z,6.00
2019-03-28T13:56:30.350Z,6.40
2019-03-28T13:58:59.158Z,6.42
2019-03-28T14:01:28.016Z,7.00
2019-03-28T14:03:56.818Z,7.08
2019-03-28T14:06:25.614Z,6.03
2019-03-28T14:08:54.416Z,3.22
2019-03-28T14:11:23.347Z,5.50
2019-03-28T14:13:52.148Z,8.88
2019-03-28T14:16:20.949Z,3.35
2019-03-28T14:18:49.853Z,9.23
2019-03-28T14:21:18.726Z,10.15
2019-03-28T14:23:47.550Z,4.22
2019-03-28T14:26:16.391Z,10.08
2019-03-28T14:28:45.221Z,6.12
2019-03-28T14:31:14.032Z,4.85
2019-03-28T14:33:42.876Z,9.58
2019-03-28T14:36:11.764Z,18.95
2019-03-28T14:38:40.573Z,2.90
2019-03-28T14:41:09.476Z,8.08
2019-03-28T14:43:38.276Z,5.95
2019-03-28T14:46:07.174Z,9.43
2019-03-28T14:48:35.950Z,7.37
2019-03-28T14:51:04.938Z,8.38
2019-03-28T14:53:33.772Z,10.13
2019-03-28T14:56:03.959Z,5.03
2019-03-28T14:58:33.581Z,10.15
2019-03-28T15:01:02.443Z,10.00
2019-03-28T15:03:31.327Z,12.43
2019-03-28T15:06:00.217Z,4.00
2019-03-28T15:08:28.974Z,12.68
2019-03-28T15:10:57.727Z,6.30
2019-03-28T15:13:26.519Z,9.23
2019-03-28T15:15:55.324Z,13.83
2019-03-28T15:18:24.093Z,13.38
2019-03-28T15:20:52.869Z,7.10
2019-03-28T15:23:21.677Z,11.57
2019-03-28T15:25:50.468Z,8.55
2019-03-28T15:28:19.295Z,5.97
2019-03-28T15:30:48.139Z,8.45
2019-03-28T15:33:16.922Z,6.92
2019-03-28T15:35:45.805Z,9.08
2019-03-28T15:38:14.719Z,5.58
2019-03-28T15:40:43.588Z,8.00
2019-03-28T15:43:12.362Z,9.85
2019-03-28T15:45:41.135Z,13.30
2019-03-28T15:48:09.992Z,4.50
2019-03-28T15:50:38.997Z,4.25
2019-03-28T15:53:07.869Z,4.70
2019-03-28T15:55:36.681Z,7.45
2019-03-28T15:58:05.580Z,5.45
2019-03-28T16:00:34.347Z,8.03
2019-03-28T16:03:03.227Z,9.98
2019-03-28T16:05:32.054Z,5.95
2019-03-28T16:08:01.138Z,6.95
2019-03-28T16:10:30.237Z,8.60
2019-03-28T16:12:59.147Z,6.70
2019-03-28T16:15:27.998Z,9.48
2019-03-28T16:17:57.803Z,15.38
2019-03-28T16:20:26.893Z,5.33
2019-03-28T16:22:55.692Z,9.10
2019-03-28T16:25:24.474Z,6.78
2019-03-28T16:27:53.295Z,7.97
2019-03-28T16:30:34.031Z,12.20
2019-03-28T16:33:02.842Z,11.25
2019-03-28T16:35:31.699Z,8.23
2019-03-28T16:38:00.438Z,8.63
2019-03-28T16:40:29.347Z,11.00
2019-03-28T16:42:58.215Z,7.92
2019-03-28T16:45:27.071Z,11.00
2019-03-28T16:47:55.827Z,8.50
2019-03-28T16:50:24.688Z,9.85
2019-03-28T16:52:53.535Z,5.55
2019-03-28T16:55:26.637Z,11.12
2019-03-28T16:57:53.846Z,10.70
2019-03-28T17:00:25.695Z,10.60
2019-03-28T17:02:54.583Z,10.03
2019-03-28T17:05:23.417Z,11.48
2019-03-28T17:07:52.374Z,11.80
2019-03-28T17:10:43.808Z,9.70
2019-03-28T17:13:12.713Z,13.68
2019-03-28T17:15:41.553Z,8.80
2019-03-28T17:18:10.352Z,6.95
2019-03-28T17:20:39.162Z,9.03
2019-03-28T17:23:08.946Z,9.68
2019-03-28T17:25:37.838Z,10.80
2019-03-28T17:28:06.572Z,8.58
2019-03-28T17:30:35.419Z,6.62
2019-03-28T17:33:04.219Z,6.37
2019-03-28T17:35:33.003Z,6.97
2019-03-28T17:38:01.863Z,10.63
2019-03-28T17:40:30.691Z,8.95
2019-03-28T17:42:59.592Z,8.60
2019-03-28T17:45:30.018Z,5.95
2019-03-28T17:47:58.844Z,6.70
2019-03-28T17:50:27.749Z,10.90
2019-03-28T17:52:56.619Z,6.60
2019-03-28T17:55:25.494Z,12.07
2019-03-28T17:57:54.289Z,7.65
2019-03-28T18:00:23.133Z,11.33
2019-03-28T18:02:51.986Z,8.88
2019-03-28T18:05:20.875Z,8.05
2019-03-28T18:07:49.656Z,6.85
2019-03-28T18:10:18.505Z,8.38
2019-03-28T18:12:47.361Z,7.40
2019-03-28T18:15:16.315Z,7.90
2019-03-28T18:17:45.053Z,6.90
2019-03-28T18:20:14.223Z,9.45
2019-03-28T18:22:42.974Z,8.93
2019-03-28T18:25:12.052Z,6.75
2019-03-28T18:27:40.948Z,8.30
2019-03-28T18:30:10.709Z,7.42
2019-03-28T18:32:39.712Z,5.58
2019-03-28T18:35:08.909Z,5.25
2019-03-28T18:37:37.753Z,7.03
2019-03-28T18:40:07.748Z,9.20
2019-03-28T18:42:36.519Z,6.20
2019-03-28T18:45:08.621Z,7.33
2019-03-28T18:47:37.403Z,9.25
2019-03-28T18:50:07.552Z,12.53
2019-03-28T18:52:36.423Z,8.90
2019-03-28T18:55:06.941Z,7.30
2019-03-28T18:57:35.946Z,9.43
2019-03-28T19:00:06.952Z,6.58
2019-03-28T19:02:35.823Z,4.92
2019-03-28T19:05:18.685Z,6.40
2019-03-28T19:07:35.959Z,4.35
2019-03-28T19:10:06.773Z,5.35
2019-03-28T19:12:35.587Z,3.40
2019-03-28T19:15:05.959Z,4.75
2019-03-28T19:17:34.724Z,9.40
2019-03-28T19:20:05.369Z,10.30
2019-03-28T19:22:34.192Z,7.17
2019-03-28T19:25:03.037Z,6.53
2019-03-28T19:27:31.974Z,9.33
2019-03-28T19:30:00.887Z,4.50
2019-03-28T19:32:29.928Z,6.17
2019-03-28T19:34:59.293Z,6.55
2019-03-28T19:37:30.669Z,6.87
2019-03-28T19:39:59.539Z,7.20
2019-03-28T19:42:28.658Z,7.20
2019-03-28T19:44:57.419Z,6.90
2019-03-28T19:47:28.533Z,9.70
2019-03-28T19:49:56.742Z,10.90
2019-03-28T19:52:26.018Z,8.40
2019-03-28T19:54:55.096Z,6.90
2019-03-28T19:57:23.874Z,5.97
2019-03-28T19:59:52.705Z,7.15
2019-03-28T20:02:21.595Z,5.90
2019-03-28T20:04:50.472Z,6.85
2019-03-28T20:07:21.875Z,8.35
2019-03-28T20:09:49.757Z,7.72
2019-03-28T20:12:18.589Z,8.18
2019-03-28T20:14:47.392Z,6.25
2019-03-28T20:17:16.362Z,5.05
2019-03-28T20:19:45.268Z,5.58
2019-03-28T20:22:14.128Z,10.15
2019-03-28T20:24:42.977Z,6.00
2019-03-28T20:27:11.809Z,8.33
2019-03-28T20:29:40.741Z,5.72
2019-03-28T20:32:09.540Z,7.08
2019-03-28T20:34:41.374Z,9.50
2019-03-28T20:37:10.240Z,6.08
2019-03-28T20:39:40.483Z,4.75
2019-03-28T20:42:11.004Z,4.65
2019-03-28T20:44:39.843Z,13.03
2019-03-28T20:47:08.641Z,6.33
2019-03-28T20:53:06.637Z,8.28
2019-03-28T20:55:35.413Z,7.37
2019-03-28T20:58:04.226Z,3.67
2019-03-28T21:00:41.480Z,5.35
2019-03-28T21:03:10.408Z,6.37
2019-03-28T21:05:39.349Z,7.55
2019-03-28T21:08:08.230Z,5.03
2019-03-28T21:10:39.727Z,5.33
2019-03-28T21:13:09.740Z,5.25
2019-03-28T21:15:38.927Z,5.95
2019-03-28T21:21:38.630Z,4.47
2019-03-28T21:24:07.583Z,6.37
2019-03-28T21:26:36.428Z,6.58
2019-03-28T21:29:05.303Z,5.30
2019-03-28T21:31:34.151Z,5.55
2019-03-28T21:34:13.657Z,5.40
2019-03-28T21:36:42.626Z,6.05
2019-03-28T21:39:11.412Z,4.40
2019-03-28T21:41:40.290Z,4.83
2019-03-28T21:44:09.030Z,6.03
2019-03-28T21:46:37.884Z,6.08
2019-03-28T21:49:06.755Z,6.53
2019-03-28T21:51:35.565Z,7.10
2019-03-28T21:54:05.120Z,5.22
2019-03-28T21:56:34.220Z,7.25
2019-03-28T21:59:03.128Z,5.72
2019-03-28T22:01:32.724Z,5.22
2019-03-28T22:04:01.847Z,7.47
2019-03-28T22:06:42.322Z,4.08
2019-03-28T22:09:01.177Z,5.70
2019-03-28T22:11:30.054Z,5.45
2019-03-28T22:13:58.861Z,7.83
2019-03-28T22:16:27.678Z,4.78
2019-03-28T22:18:56.517Z,6.28
2019-03-28T22:21:27.448Z,6.28
2019-03-28T22:23:55.834Z,5.92
2019-03-28T22:26:24.763Z,7.75
2019-03-28T22:28:53.517Z,6.22
2019-03-28T22:31:22.375Z,6.03
2019-03-28T22:33:51.266Z,5.47
2019-03-28T22:36:20.058Z,4.92
2019-03-28T22:38:48.902Z,5.17
2019-03-28T22:41:17.728Z,5.08
2019-03-28T22:43:46.568Z,4.87
2019-03-28T22:46:15.364Z,6.12
2019-03-28T22:48:44.532Z,4.70
2019-03-28T22:51:13.406Z,8.05
2019-03-28T22:53:42.260Z,11.80
2019-03-28T22:56:11.094Z,6.58
2019-03-28T22:58:39.880Z,5.28
2019-03-28T23:01:08.705Z,3.80
2019-03-28T23:03:37.542Z,7.03
2019-03-28T23:06:06.439Z,5.90
2019-03-28T23:08:35.191Z,4.55
2019-03-28T23:11:04.062Z,5.37
2019-03-28T23:13:32.857Z,4.15
2019-03-28T23:16:02.912Z,3.15
2019-03-28T23:18:32.004Z,6.83
2019-03-28T23:21:00.884Z,6.95
2019-03-28T23:23:29.718Z,7.12
2019-03-28T23:25:58.537Z,4.15
2019-03-28T23:28:27.420Z,4.97
2019-03-28T23:30:56.169Z,4.17
2019-03-28T23:33:25.045Z,9.08
2019-03-28T23:35:53.789Z,6.47
2019-03-28T23:38:22.595Z,4.62
2019-03-28T23:40:51.486Z,3.22
2019-03-28T23:43:20.257Z,3.77
2019-03-28T23:45:48.979Z,6.35
2019-03-28T23:48:17.822Z,6.10
2019-03-28T23:50:46.563Z,5.20
2019-03-28T23:53:15.391Z,6.67
2019-03-28T23:55:44.914Z,3.55
2019-03-28T23:58:14.070Z,4.65
